createdAt,value
2023-02-11T00:04:38.735Z,36.23
2023-02-11T00:10:41.147Z,43.60
2023-02-11T00:16:43.669Z,66.10
2023-02-11T00:22:46.067Z,52.63
2023-02-11T00:28:51.532Z,44.17
2023-02-11T00:34:55.980Z,48.07
2023-02-11T00:40:58.439Z,27.70
2023-02-11T00:47:00.148Z,24.30
2023-02-11T00:53:02.340Z,22.53
2023-02-11T00:59:04.811Z,18.87
2023-02-11T01:05:07.273Z,30.73
2023-02-11T01:11:15.735Z,33.17
2023-02-11T01:17:18.197Z,18.97
2023-02-11T01:23:21.637Z,21.27
2023-02-11T01:29:24.084Z,17.70
2023-02-11T01:35:25.931Z,18.93
2023-02-11T01:41:27.645Z,39.73
2023-02-11T01:47:30.452Z,41.47
2023-02-11T01:53:51.971Z,31.87
2023-02-11T02:00:06.472Z,23.07
2023-02-11T02:06:50.722Z,21.43
2023-02-11T02:12:54.551Z,22.50
2023-02-11T02:19:09.091Z,21.73
2023-02-11T02:26:04.770Z,21.17
2023-02-11T02:32:34.549Z,21.20
2023-02-11T02:39:04.899Z,18.23
2023-02-11T02:45:11.929Z,20.83
2023-02-11T02:51:32.914Z,19.47
2023-02-11T02:58:17.410Z,18.97
2023-02-11T03:04:34.810Z,17.60
2023-02-11T03:10:44.859Z,17.80
2023-02-11T03:16:49.035Z,18.67
2023-02-11T03:22:50.783Z,16.50
2023-02-11T03:29:05.982Z,19.57
2023-02-11T03:35:22.508Z,18.00
2023-02-11T03:41:34.018Z,13.60
2023-02-11T03:47:40.463Z,12.27
2023-02-11T03:53:45.932Z,11.43
2023-02-11T03:59:59.515Z,12.57
2023-02-11T04:06:01.290Z,11.87
2023-02-11T04:12:03.330Z,11.23
2023-02-11T04:18:08.839Z,12.17
2023-02-11T04:24:11.318Z,12.83
2023-02-11T04:30:17.805Z,11.03
2023-02-11T04:36:20.234Z,11.57
2023-02-11T04:42:23.679Z,15.23
2023-02-11T04:48:26.144Z,10.23
2023-02-11T04:54:28.593Z,10.77
2023-02-11T05:00:31.020Z,12.50
2023-02-11T05:06:33.503Z,10.60
2023-02-11T05:12:37.970Z,47.47
2023-02-11T05:18:42.426Z,13.13
2023-02-11T05:24:44.876Z,18.83
2023-02-11T05:30:46.851Z,10.80
2023-02-11T05:36:48.655Z,14.93
2023-02-11T05:42:50.384Z,12.17
2023-02-11T05:48:52.425Z,14.13
2023-02-11T05:54:54.492Z,13.00
2023-02-11T06:00:56.789Z,11.20
2023-02-11T06:06:58.473Z,12.33
2023-02-11T06:13:02.516Z,11.40
2023-02-11T06:19:04.949Z,11.73
2023-02-11T06:25:07.219Z,10.83
2023-02-11T06:31:10.964Z,10.70
2023-02-11T06:37:13.333Z,11.13
2023-02-11T06:43:16.870Z,11.47
2023-02-11T06:49:19.235Z,10.10
2023-02-11T06:55:21.695Z,10.83
2023-02-11T07:01:26.248Z,11.03
2023-02-11T07:07:34.340Z,10.47
2023-02-11T07:13:39.538Z,11.93
2023-02-11T07:19:43.589Z,26.40
2023-02-11T07:25:46.053Z,19.80
2023-02-11T07:31:51.563Z,11.83
2023-02-11T07:37:54.035Z,12.60
2023-02-11T07:43:56.083Z,12.07
2023-02-11T07:50:02.946Z,10.80
2023-02-11T07:56:06.016Z,10.53
2023-02-11T08:02:09.567Z,9.90
2023-02-11T08:08:11.304Z,10.17
2023-02-11T08:14:13.306Z,10.00
2023-02-11T08:20:16.249Z,9.90
2023-02-11T08:26:21.481Z,9.97
2023-02-11T08:32:29.600Z,11.10
2023-02-11T08:38:33.460Z,11.20
2023-02-11T08:44:55.974Z,10.70
2023-02-11T08:51:16.523Z,11.30
2023-02-11T08:57:23.999Z,9.67
2023-02-11T09:03:36.481Z,9.40
2023-02-11T09:09:45.269Z,8.67
2023-02-11T09:16:08.141Z,9.67
2023-02-11T09:22:13.392Z,8.83
2023-02-11T09:28:15.510Z,9.87
2023-02-11T09:34:24.968Z,8.73
2023-02-11T09:40:28.671Z,9.87
2023-02-11T09:53:11.395Z,11.10
2023-02-11T09:59:20.430Z,9.40
2023-02-11T10:05:53.851Z,9.13
2023-02-11T10:12:15.014Z,9.47
2023-02-11T10:18:26.488Z,9.03
2023-02-11T10:24:29.983Z,7.70
2023-02-11T10:30:41.495Z,7.13
2023-02-11T10:36:45.961Z,7.93
2023-02-11T10:43:03.635Z,6.90
2023-02-11T10:51:03.738Z,9.40
2023-02-11T10:56:16.596Z,9.43
2023-02-11T11:02:35.082Z,11.50
2023-02-11T11:09:01.307Z,14.60
2023-02-11T11:15:23.924Z,13.13
2023-02-11T11:21:35.724Z,12.00
2023-02-11T11:27:39.157Z,12.07
2023-02-11T11:33:44.795Z,13.07
2023-02-11T11:40:16.099Z,12.37
2023-02-11T11:46:25.824Z,12.27
2023-02-11T11:52:43.179Z,15.07
2023-02-11T11:58:53.009Z,16.57
2023-02-11T12:05:15.256Z,15.27
2023-02-11T12:11:39.376Z,16.07
2023-02-11T12:17:49.301Z,17.97
2023-02-11T12:24:17.431Z,16.37
2023-02-11T12:30:51.899Z,17.47
2023-02-11T12:37:07.535Z,13.07
2023-02-11T12:43:39.523Z,15.73
2023-02-11T12:50:03.377Z,15.20
2023-02-11T12:56:33.850Z,16.53
2023-02-11T13:02:43.160Z,18.20
2023-02-11T13:08:49.562Z,18.20
2023-02-11T13:15:04.076Z,19.90
2023-02-11T13:21:29.552Z,19.47
2023-02-11T13:27:50.752Z,19.63
2023-02-11T13:33:53.590Z,18.70
2023-02-11T13:40:10.117Z,19.03
2023-02-11T13:46:15.576Z,19.77
2023-02-11T13:52:40.111Z,19.67
2023-02-11T13:58:50.549Z,19.20
2023-02-11T14:05:43.237Z,21.03
2023-02-11T14:11:50.710Z,21.70
2023-02-11T14:17:54.189Z,24.33
2023-02-11T14:24:02.646Z,23.43
2023-02-11T14:30:27.177Z,31.23
2023-02-11T14:37:11.829Z,37.73
2023-02-11T14:43:19.296Z,34.10
2023-02-11T14:49:27.760Z,31.40
2023-02-11T14:55:41.465Z,31.00
2023-02-11T15:01:52.569Z,30.20
2023-02-11T15:08:01.239Z,32.00
2023-02-11T15:14:35.853Z,34.07
2023-02-11T15:20:38.337Z,42.20
2023-02-11T15:26:40.768Z,44.03
2023-02-11T15:32:46.240Z,45.90
2023-02-11T15:39:17.578Z,40.10
2023-02-11T15:45:29.742Z,43.50
2023-02-11T15:51:40.026Z,40.13
2023-02-11T15:57:51.280Z,47.80
2023-02-11T16:03:53.763Z,57.87
2023-02-11T16:09:59.201Z,54.67
2023-02-11T16:16:18.733Z,61.10
2023-02-11T16:22:27.208Z,62.40
2023-02-11T16:28:30.764Z,73.27
2023-02-11T16:34:33.106Z,58.50
2023-02-11T16:40:35.540Z,57.03
2023-02-11T16:46:38.018Z,55.60
2023-02-11T16:52:40.480Z,43.03
2023-02-11T16:58:42.923Z,48.47
2023-02-11T17:04:46.407Z,45.33
2023-02-11T17:10:50.324Z,42.03
2023-02-11T17:16:53.382Z,37.23
2023-02-11T17:22:57.947Z,34.80
2023-02-11T17:29:00.843Z,36.33
2023-02-11T17:35:02.655Z,25.97
2023-02-11T17:41:05.702Z,19.10
2023-02-11T17:47:09.724Z,14.77
2023-02-11T17:53:12.150Z,25.13
2023-02-11T17:59:17.648Z,19.67
2023-02-11T18:05:21.149Z,19.97
2023-02-11T18:11:29.659Z,18.50
2023-02-11T18:17:31.672Z,20.93
2023-02-11T18:23:33.570Z,17.67
2023-02-11T18:29:35.741Z,16.17
2023-02-11T18:35:38.712Z,17.73
2023-02-11T18:41:44.003Z,17.77
2023-02-11T18:47:49.454Z,19.57
2023-02-11T18:53:51.910Z,35.73
2023-02-11T18:59:55.360Z,18.13
2023-02-11T19:05:57.811Z,16.33
2023-02-11T19:12:01.266Z,20.63
2023-02-11T19:18:11.126Z,16.00
2023-02-11T19:24:17.227Z,16.07
2023-02-11T19:30:19.683Z,12.93
2023-02-11T19:36:22.177Z,12.87
2023-02-11T19:42:32.159Z,11.80
2023-02-11T19:48:35.890Z,12.57
2023-02-11T19:54:39.695Z,12.97
2023-02-11T20:00:42.159Z,11.10
2023-02-11T20:06:45.530Z,12.17
2023-02-11T20:12:47.978Z,11.73
2023-02-11T20:18:50.618Z,10.70
2023-02-11T20:24:53.251Z,10.03
2023-02-11T20:30:57.470Z,11.20
2023-02-11T20:37:09.452Z,9.53
2023-02-11T20:43:23.016Z,9.27
2023-02-11T20:49:28.895Z,10.37
2023-02-11T20:55:31.353Z,9.33
2023-02-11T21:01:47.434Z,9.93
2023-02-11T21:07:49.271Z,12.03
2023-02-11T21:13:53.928Z,10.87
2023-02-11T21:20:00.484Z,11.30
2023-02-11T21:26:04.605Z,10.90
2023-02-11T21:32:14.249Z,10.40
2023-02-11T21:38:16.653Z,10.23
2023-02-11T21:44:20.183Z,10.80
2023-02-11T21:50:22.595Z,10.63
2023-02-11T21:56:34.106Z,11.87
2023-02-11T22:02:43.611Z,12.20
2023-02-11T22:15:01.569Z,12.17
2023-02-11T22:21:16.144Z,11.10
2023-02-11T22:27:24.247Z,11.30
2023-02-11T22:33:30.047Z,10.40
2023-02-11T22:39:32.487Z,11.17
2023-02-11T22:45:36.022Z,11.80
2023-02-11T22:51:39.372Z,12.33
2023-02-11T22:57:41.124Z,11.87
2023-02-11T23:03:48.379Z,11.10
2023-02-11T23:09:50.821Z,11.10
2023-02-11T23:15:52.830Z,10.70
2023-02-11T23:21:57.789Z,10.73
2023-02-11T23:28:00.253Z,10.87
2023-02-11T23:34:02.673Z,10.80
2023-02-11T23:40:05.145Z,10.10
2023-02-11T23:46:07.813Z,9.97
2023-02-11T23:52:09.572Z,9.93
2023-02-11T23:58:15.211Z,11.03
